createdAt,value
2018-08-04T00:00:28.937Z,59.70
2018-08-04T00:03:09.679Z,59.30
2018-08-04T00:05:50.469Z,58.00
2018-08-04T00:08:31.260Z,56.70
2018-08-04T00:11:12.079Z,55.50
2018-08-04T00:13:53.554Z,54.70
2018-08-04T00:16:34.379Z,54.40
2018-08-04T00:19:15.106Z,53.90
2018-08-04T00:21:55.880Z,53.10
2018-08-04T00:24:36.594Z,52.80
2018-08-04T00:27:17.543Z,52.70
2018-08-04T00:29:58.214Z,52.70
2018-08-04T00:32:39.396Z,52.80
2018-08-04T00:35:20.097Z,52.70
2018-08-04T00:38:00.917Z,52.40
2018-08-04T00:40:41.649Z,52.40
2018-08-04T00:43:22.619Z,52.50
2018-08-04T00:46:03.277Z,52.00
2018-08-04T00:48:44.146Z,51.80
2018-08-04T00:51:24.814Z,51.60
2018-08-04T00:54:05.385Z,51.50
2018-08-04T00:56:47.102Z,51.20
2018-08-04T00:59:28.291Z,50.80
2018-08-04T01:02:08.864Z,50.70
2018-08-04T01:04:50.295Z,50.60
2018-08-04T01:07:30.975Z,50.50
2018-08-04T01:10:11.586Z,50.70
2018-08-04T01:12:52.280Z,51.20
2018-08-04T01:15:33.050Z,51.20
2018-08-04T01:18:14.177Z,50.80
2018-08-04T01:20:54.970Z,51.10
2018-08-04T01:23:35.921Z,51.00
2018-08-04T01:26:16.776Z,51.00
2018-08-04T01:28:58.317Z,51.00
2018-08-04T01:31:38.873Z,51.00
2018-08-04T01:34:19.849Z,51.10
2018-08-04T01:37:00.814Z,51.00
2018-08-04T01:39:42.060Z,51.20
2018-08-04T01:42:23.090Z,51.10
2018-08-04T01:45:03.649Z,51.00
2018-08-04T01:47:44.423Z,51.30
2018-08-04T01:50:26.068Z,51.10
2018-08-04T01:53:06.800Z,50.90
2018-08-04T01:55:47.552Z,50.90
2018-08-04T01:58:28.606Z,50.90
2018-08-04T02:01:10.231Z,51.00
2018-08-04T02:03:50.840Z,51.00
2018-08-04T02:06:31.617Z,51.00
2018-08-04T02:09:13.318Z,50.90
2018-08-04T02:11:56.199Z,50.90
2018-08-04T02:14:36.854Z,51.00
2018-08-04T02:17:17.569Z,51.10
2018-08-04T02:19:58.721Z,51.30
2018-08-04T02:22:39.325Z,51.20
2018-08-04T02:25:20.087Z,52.10
2018-08-04T02:28:00.741Z,56.30
2018-08-04T02:30:42.153Z,57.50
2018-08-04T02:33:23.069Z,52.00
2018-08-04T02:36:03.892Z,51.80
2018-08-04T02:38:44.510Z,51.80
2018-08-04T02:41:25.207Z,57.60
2018-08-04T02:44:05.844Z,60.40
2018-08-04T02:46:47.268Z,61.10
2018-08-04T02:49:28.134Z,62.30
2018-08-04T02:52:08.849Z,62.30
2018-08-04T02:57:32.013Z,63.80
2018-08-04T03:00:12.754Z,63.40
2018-08-04T03:02:53.563Z,63.20
2018-08-04T03:05:34.342Z,62.60
2018-08-04T03:08:16.549Z,62.10
2018-08-04T03:10:57.593Z,61.80
2018-08-04T03:13:38.461Z,61.80
2018-08-04T03:16:19.229Z,61.20
2018-08-04T03:19:01.374Z,61.80
2018-08-04T03:21:42.532Z,62.90
2018-08-04T03:24:23.313Z,62.50
2018-08-04T03:27:04.461Z,62.90
2018-08-04T03:29:45.157Z,62.30
2018-08-04T03:32:26.288Z,60.30
2018-08-04T03:35:07.073Z,59.80
2018-08-04T03:37:47.898Z,57.30
2018-08-04T03:40:29.416Z,56.80
2018-08-04T03:43:10.320Z,56.50
2018-08-04T03:45:50.951Z,56.00
2018-08-04T03:48:32.521Z,56.80
2018-08-04T03:51:15.254Z,59.20
2018-08-04T03:53:57.420Z,60.60
2018-08-04T03:56:39.754Z,60.90
2018-08-04T03:59:22.409Z,62.30
2018-08-04T04:02:05.838Z,62.60
2018-08-04T04:04:46.813Z,62.40
2018-08-04T04:07:28.627Z,59.70
2018-08-04T04:10:11.353Z,57.80
2018-08-04T04:12:53.369Z,59.20
2018-08-04T04:15:36.530Z,59.20
2018-08-04T04:18:18.927Z,60.80
2018-08-04T04:21:01.586Z,62.50
2018-08-04T04:23:43.246Z,62.50
2018-08-04T04:26:26.385Z,63.00
2018-08-04T04:29:08.548Z,63.00
2018-08-04T04:31:50.429Z,63.20
2018-08-04T04:34:32.390Z,63.70
2018-08-04T04:37:14.205Z,63.90
2018-08-04T04:39:55.556Z,63.80
2018-08-04T04:42:36.861Z,64.30
2018-08-04T04:45:18.326Z,64.60
2018-08-04T04:51:12.697Z,65.70
2018-08-04T04:53:54.244Z,65.90
2018-08-04T04:56:35.781Z,66.00
2018-08-04T04:59:18.367Z,66.40
2018-08-04T05:02:00.447Z,66.60
2018-08-04T05:04:42.183Z,66.40
2018-08-04T05:07:23.153Z,66.60
2018-08-04T05:10:05.240Z,67.70
2018-08-04T05:12:46.585Z,67.20
2018-08-04T05:15:27.384Z,67.10
2018-08-04T05:18:08.920Z,67.30
2018-08-04T05:20:51.387Z,67.10
2018-08-04T05:23:33.227Z,67.10
2018-08-04T05:26:14.989Z,67.20
2018-08-04T05:28:56.743Z,67.30
2018-08-04T05:31:39.120Z,67.60
2018-08-04T05:34:21.621Z,67.30
2018-08-04T05:37:03.602Z,66.70
2018-08-04T05:39:45.702Z,66.30
2018-08-04T05:42:27.092Z,65.80
2018-08-04T05:45:10.473Z,65.80
2018-08-04T05:47:52.195Z,65.60
2018-08-04T05:50:34.557Z,65.00
2018-08-04T05:53:16.348Z,64.60
2018-08-04T05:55:58.312Z,64.20
2018-08-04T05:58:40.669Z,62.80
2018-08-04T06:01:22.573Z,63.10
2018-08-04T06:04:04.305Z,63.00
2018-08-04T06:06:46.704Z,62.90
2018-08-04T06:09:27.838Z,62.70
2018-08-04T06:12:10.213Z,62.00
2018-08-04T06:14:52.150Z,61.80
2018-08-04T06:17:34.266Z,60.50
2018-08-04T06:20:17.934Z,56.30
2018-08-04T06:22:59.050Z,58.40
2018-08-04T06:25:40.073Z,57.80
2018-08-04T06:28:21.810Z,57.10
2018-08-04T06:31:03.070Z,56.80
2018-08-04T06:33:45.396Z,56.60
2018-08-04T06:36:26.940Z,57.10
2018-08-04T06:39:08.700Z,57.20
2018-08-04T06:41:50.183Z,51.10
2018-08-04T06:44:32.192Z,57.20
2018-08-04T06:47:13.861Z,48.30
2018-08-04T06:49:55.904Z,57.00
2018-08-04T06:52:37.078Z,52.90
2018-08-04T06:55:19.656Z,56.30
2018-08-04T06:58:02.363Z,51.00
2018-08-04T07:00:44.368Z,47.40
2018-08-04T07:03:26.472Z,44.90
2018-08-04T07:06:09.489Z,42.10
2018-08-04T07:08:51.677Z,43.50
2018-08-04T07:11:34.235Z,41.20
2018-08-04T07:14:15.587Z,41.40
2018-08-04T07:19:39.867Z,40.00
2018-08-04T07:22:22.098Z,40.20
2018-08-04T07:25:03.349Z,40.00
2018-08-04T07:27:45.591Z,38.90
2018-08-04T07:33:10.632Z,38.20
2018-08-04T07:35:52.512Z,38.40
2018-08-04T07:38:34.006Z,38.40
2018-08-04T07:41:15.663Z,45.50
2018-08-04T07:43:58.986Z,37.20
2018-08-04T07:46:41.359Z,43.30
2018-08-04T07:49:23.199Z,51.20
2018-08-04T07:52:04.223Z,52.20
2018-08-04T07:54:45.949Z,52.50
2018-08-04T07:57:27.653Z,53.40
2018-08-04T08:00:08.470Z,53.80
2018-08-04T08:02:50.542Z,54.00
2018-08-04T08:05:34.160Z,54.70
2018-08-04T08:08:17.352Z,54.80
2018-08-04T08:10:59.411Z,54.60
2018-08-04T08:13:41.272Z,55.10
2018-08-04T08:16:24.162Z,54.80
2018-08-04T08:19:07.673Z,54.40
2018-08-04T08:21:49.837Z,54.10
2018-08-04T08:24:32.269Z,54.40
2018-08-04T08:27:15.310Z,54.60
2018-08-04T08:29:57.181Z,55.30
2018-08-04T08:32:39.146Z,55.20
2018-08-04T08:35:20.728Z,54.80
2018-08-04T08:38:03.116Z,54.50
2018-08-04T08:40:44.426Z,55.30
2018-08-04T08:43:26.988Z,55.30
2018-08-04T08:46:08.789Z,54.60
2018-08-04T08:48:51.540Z,55.10
2018-08-04T08:51:33.584Z,55.40
2018-08-04T08:54:15.839Z,55.00
2018-08-04T08:56:57.124Z,55.20
2018-08-04T08:59:38.230Z,53.70
2018-08-04T09:02:19.021Z,53.50
2018-08-04T09:04:59.589Z,54.20
2018-08-04T09:07:40.763Z,55.10
2018-08-04T09:10:22.122Z,55.50
2018-08-04T09:13:03.479Z,55.50
2018-08-04T09:15:44.667Z,56.10
2018-08-04T09:18:25.543Z,57.00
2018-08-04T09:21:06.091Z,56.70
2018-08-04T09:26:28.951Z,57.20
2018-08-04T09:29:10.465Z,57.00
2018-08-04T09:31:51.100Z,57.70
2018-08-04T09:34:31.745Z,58.20
2018-08-04T09:37:13.260Z,58.40
2018-08-04T09:39:54.177Z,59.00
2018-08-04T09:42:34.759Z,58.80
2018-08-04T09:45:15.549Z,58.60
2018-08-04T09:47:56.633Z,59.20
2018-08-04T09:50:37.393Z,56.70
2018-08-04T09:53:19.857Z,55.90
2018-08-04T09:56:01.226Z,55.10
2018-08-04T10:01:41.345Z,53.90
2018-08-04T10:04:22.105Z,54.40
2018-08-04T10:07:03.345Z,55.20
2018-08-04T10:09:44.127Z,56.40
2018-08-04T10:12:25.847Z,56.90
2018-08-04T10:15:06.941Z,56.00
2018-08-04T10:17:47.759Z,56.00
2018-08-04T10:20:28.448Z,55.90
2018-08-04T10:23:09.432Z,56.90
2018-08-04T10:25:50.076Z,56.00
2018-08-04T10:28:30.716Z,58.50
2018-08-04T10:31:11.395Z,57.70
2018-08-04T10:33:52.278Z,56.20
2018-08-04T10:36:32.936Z,58.10
2018-08-04T10:39:14.015Z,59.50
2018-08-04T10:41:55.333Z,56.40
2018-08-04T10:44:36.069Z,58.50
2018-08-04T10:47:17.532Z,53.40
2018-08-04T10:49:58.241Z,52.80
2018-08-04T10:52:39.088Z,49.70
2018-08-04T10:55:19.885Z,50.40
2018-08-04T10:58:00.457Z,49.40
2018-08-04T11:00:41.105Z,49.40
2018-08-04T11:03:21.854Z,50.30
2018-08-04T11:06:02.458Z,51.40
2018-08-04T11:08:43.882Z,51.60
2018-08-04T11:14:06.418Z,51.90
2018-08-04T11:16:47.640Z,52.30
2018-08-04T11:19:28.697Z,51.60
2018-08-04T11:22:09.344Z,51.20
2018-08-04T11:24:50.083Z,51.50
2018-08-04T11:30:12.797Z,52.80
2018-08-04T11:32:53.536Z,53.10
2018-08-04T11:35:34.782Z,53.10
2018-08-04T11:38:16.322Z,52.80
2018-08-04T11:40:57.788Z,52.60
2018-08-04T11:43:38.522Z,52.60
2018-08-04T11:46:19.941Z,52.00
2018-08-04T11:49:01.066Z,52.30
2018-08-04T11:51:41.886Z,52.60
2018-08-04T11:54:22.837Z,52.30
2018-08-04T11:57:03.566Z,52.70
2018-08-04T11:59:44.422Z,53.30
2018-08-04T12:02:25.127Z,53.80
2018-08-04T12:05:05.741Z,54.60
2018-08-04T12:07:46.612Z,58.30
2018-08-04T12:10:27.237Z,54.60
2018-08-04T12:13:07.948Z,55.30
2018-08-04T12:18:31.340Z,54.10
2018-08-04T12:23:53.156Z,55.30
2018-08-04T12:26:33.973Z,54.90
2018-08-04T12:29:14.760Z,56.00
2018-08-04T12:31:55.561Z,55.40
2018-08-04T12:34:36.228Z,55.20
2018-08-04T12:37:17.152Z,55.70
2018-08-04T12:39:57.826Z,55.30
2018-08-04T12:42:38.633Z,54.90
2018-08-04T12:45:19.426Z,54.60
2018-08-04T12:48:00.324Z,53.70
2018-08-04T12:53:22.915Z,54.20
2018-08-04T12:56:03.890Z,54.20
2018-08-04T12:58:45.005Z,53.80
2018-08-04T13:01:25.737Z,53.80
2018-08-04T13:04:07.197Z,53.80
2018-08-04T13:06:47.788Z,52.10
2018-08-04T13:09:29.249Z,48.70
2018-08-04T13:12:10.354Z,45.60
2018-08-04T13:14:51.133Z,46.40
2018-08-04T13:20:12.992Z,44.80
2018-08-04T13:22:54.021Z,44.70
2018-08-04T13:25:34.688Z,48.00
2018-08-04T13:28:15.440Z,48.30
2018-08-04T13:30:56.192Z,47.90
2018-08-04T13:33:36.811Z,43.20
2018-08-04T13:36:17.761Z,42.40
2018-08-04T13:38:58.477Z,43.30
2018-08-04T13:41:40.003Z,42.10
2018-08-04T13:44:21.055Z,43.70
2018-08-04T13:47:02.003Z,45.20
2018-08-04T13:49:42.808Z,46.00
2018-08-04T13:52:23.935Z,46.80
2018-08-04T13:55:04.949Z,47.60
2018-08-04T13:57:45.637Z,47.50
2018-08-04T14:00:26.235Z,48.50
2018-08-04T14:03:07.560Z,47.80
2018-08-04T14:05:48.997Z,48.20
2018-08-04T14:08:29.844Z,48.70
2018-08-04T14:11:10.597Z,48.70
2018-08-04T14:13:51.871Z,49.50
2018-08-04T14:16:33.077Z,48.80
2018-08-04T14:19:14.672Z,49.00
2018-08-04T14:21:55.385Z,47.30
2018-08-04T14:24:36.021Z,47.80
2018-08-04T14:27:17.423Z,48.10
2018-08-04T14:29:58.610Z,47.20
2018-08-04T14:32:39.414Z,48.20
2018-08-04T14:35:20.297Z,47.90
2018-08-04T14:38:01.002Z,48.00
2018-08-04T14:40:41.978Z,47.90
2018-08-04T14:43:24.111Z,48.10
2018-08-04T14:46:06.612Z,47.90
2018-08-04T14:48:49.721Z,48.50
2018-08-04T14:51:31.699Z,49.40
2018-08-04T14:54:12.475Z,50.80
2018-08-04T14:56:55.964Z,51.80
2018-08-04T15:02:18.487Z,52.40
2018-08-04T15:07:41.163Z,53.60
2018-08-04T15:10:22.681Z,54.90
2018-08-04T15:13:03.936Z,54.20
2018-08-04T15:15:46.333Z,54.90
2018-08-04T15:18:26.934Z,57.10
2018-08-04T15:21:07.621Z,57.80
2018-08-04T15:23:49.166Z,60.70
2018-08-04T15:26:30.758Z,62.20
2018-08-04T15:31:54.242Z,64.80
2018-08-04T15:34:35.095Z,64.70
2018-08-04T15:37:15.783Z,66.80
2018-08-04T15:39:56.663Z,66.80
2018-08-04T15:42:37.808Z,67.50
2018-08-04T15:45:18.523Z,68.40
2018-08-04T15:47:59.578Z,68.30
2018-08-04T15:50:40.220Z,68.70
2018-08-04T15:53:21.160Z,68.90
2018-08-04T15:56:01.826Z,72.20
2018-08-04T15:58:43.358Z,73.60
2018-08-04T16:01:24.542Z,74.20
2018-08-04T16:04:05.481Z,74.10
2018-08-04T16:06:46.253Z,74.40
2018-08-04T16:09:27.040Z,73.90
2018-08-04T16:12:07.902Z,74.30
2018-08-04T16:14:48.586Z,75.10
2018-08-04T16:17:29.591Z,75.50
2018-08-04T16:20:10.176Z,75.70
2018-08-04T16:22:51.363Z,76.00
2018-08-04T16:25:31.942Z,74.70
2018-08-04T16:28:12.865Z,74.60
2018-08-04T16:30:54.090Z,74.90
2018-08-04T16:33:35.386Z,75.00
2018-08-04T16:36:16.350Z,75.90
2018-08-04T16:38:57.844Z,76.50
2018-08-04T16:44:20.613Z,77.10
2018-08-04T16:47:01.440Z,77.10
2018-08-04T16:49:42.099Z,76.80
2018-08-04T16:52:23.061Z,76.80
2018-08-04T16:55:03.818Z,76.50
2018-08-04T16:57:44.475Z,76.20
2018-08-04T17:00:26.075Z,76.90
2018-08-04T17:03:06.785Z,77.30
2018-08-04T17:05:47.665Z,77.50
2018-08-04T17:08:28.437Z,77.10
2018-08-04T17:11:09.444Z,77.00
2018-08-04T17:13:50.502Z,76.90
2018-08-04T17:16:31.934Z,76.90
2018-08-04T17:19:12.839Z,77.20
2018-08-04T17:21:53.881Z,78.30
2018-08-04T17:24:35.322Z,78.10
2018-08-04T17:27:16.414Z,78.20
2018-08-04T17:29:57.086Z,78.20
2018-08-04T17:32:38.393Z,78.70
2018-08-04T17:35:19.729Z,78.90
2018-08-04T17:38:00.562Z,79.60
2018-08-04T17:40:41.365Z,79.60
2018-08-04T17:43:22.694Z,80.70
2018-08-04T17:46:03.689Z,80.30
2018-08-04T17:48:45.059Z,80.50
2018-08-04T17:51:26.087Z,80.70
2018-08-04T17:54:06.842Z,80.90
2018-08-04T17:56:47.698Z,80.90
2018-08-04T17:59:28.689Z,80.90
2018-08-04T18:02:09.994Z,80.80
2018-08-04T18:04:51.042Z,80.70
2018-08-04T18:07:31.822Z,80.90
2018-08-04T18:10:12.394Z,81.40
2018-08-04T18:12:53.453Z,81.80
2018-08-04T18:15:35.006Z,81.90
2018-08-04T18:18:15.870Z,82.40
2018-08-04T18:20:56.548Z,82.70
2018-08-04T18:23:37.459Z,82.60
2018-08-04T18:26:18.444Z,82.70
2018-08-04T18:29:00.021Z,83.00
2018-08-04T18:31:41.049Z,82.80
2018-08-04T18:34:21.996Z,82.90
2018-08-04T18:37:02.697Z,83.00
2018-08-04T18:39:43.660Z,82.80
2018-08-04T18:42:25.138Z,82.30
2018-08-04T18:45:05.706Z,80.80
2018-08-04T18:47:46.478Z,80.30
2018-08-04T18:50:27.634Z,79.40
2018-08-04T18:53:09.262Z,78.90
2018-08-04T18:55:50.053Z,78.10
2018-08-04T18:58:30.804Z,77.40
2018-08-04T19:01:11.484Z,77.00
2018-08-04T19:03:52.385Z,76.80
2018-08-04T19:06:34.354Z,76.60
2018-08-04T19:09:16.023Z,77.00
2018-08-04T19:11:58.491Z,77.10
2018-08-04T19:14:40.633Z,76.90
2018-08-04T19:17:22.337Z,77.00
2018-08-04T19:20:03.629Z,77.00
2018-08-04T19:25:25.992Z,76.80
2018-08-04T19:28:06.795Z,76.60
2018-08-04T19:30:47.533Z,76.70
2018-08-04T19:33:28.248Z,76.60
2018-08-04T19:36:09.189Z,76.50
2018-08-04T19:38:50.146Z,76.60
2018-08-04T19:41:31.102Z,76.20
2018-08-04T19:44:11.796Z,76.10
2018-08-04T19:46:52.530Z,76.30
2018-08-04T19:49:33.193Z,76.40
2018-08-04T19:52:14.284Z,76.80
2018-08-04T19:54:55.522Z,77.40
2018-08-04T19:57:36.067Z,77.60
2018-08-04T20:00:16.937Z,78.00
2018-08-04T20:02:58.039Z,78.40
2018-08-04T20:05:38.790Z,79.00
2018-08-04T20:08:19.493Z,79.20
2018-08-04T20:11:00.273Z,79.90
2018-08-04T20:13:41.763Z,79.10
2018-08-04T20:16:22.442Z,79.10
2018-08-04T20:19:03.389Z,79.30
2018-08-04T20:21:44.237Z,79.80
2018-08-04T20:24:25.121Z,80.00
2018-08-04T20:27:06.058Z,80.00
2018-08-04T20:29:46.662Z,80.00
2018-08-04T20:32:27.535Z,80.10
2018-08-04T20:35:08.247Z,80.00
2018-08-04T20:37:49.065Z,80.00
2018-08-04T20:40:30.021Z,80.00
2018-08-04T20:43:10.861Z,80.30
2018-08-04T20:45:51.719Z,80.30
2018-08-04T20:48:32.721Z,80.50
2018-08-04T20:51:13.514Z,80.50
2018-08-04T20:53:54.254Z,80.30
2018-08-04T20:56:35.302Z,80.50
2018-08-04T20:59:17.233Z,80.30
2018-08-04T21:01:58.192Z,80.30
2018-08-04T21:04:39.405Z,80.40
2018-08-04T21:07:21.049Z,80.30
2018-08-04T21:10:01.635Z,80.10
2018-08-04T21:12:43.018Z,80.40
2018-08-04T21:15:24.019Z,79.80
2018-08-04T21:20:45.951Z,78.70
2018-08-04T21:23:27.497Z,78.70
2018-08-04T21:26:08.169Z,78.60
2018-08-04T21:28:48.979Z,78.70
2018-08-04T21:34:12.345Z,78.30
2018-08-04T21:36:53.414Z,78.30
2018-08-04T21:39:34.201Z,78.30
2018-08-04T21:42:14.969Z,78.50
2018-08-04T21:44:55.571Z,78.40
2018-08-04T21:47:36.096Z,78.30
2018-08-04T21:50:16.655Z,78.30
2018-08-04T21:52:57.475Z,78.30
2018-08-04T21:55:38.577Z,78.20
2018-08-04T21:58:19.457Z,78.10
2018-08-04T22:01:05.061Z,78.00
2018-08-04T22:03:45.892Z,78.10
2018-08-04T22:06:26.788Z,78.30
2018-08-04T22:09:08.292Z,78.30
2018-08-04T22:11:48.967Z,78.90
2018-08-04T22:14:29.746Z,78.90
2018-08-04T22:17:10.393Z,79.00
2018-08-04T22:19:51.878Z,79.70
2018-08-04T22:25:14.978Z,80.00
2018-08-04T22:27:56.904Z,80.10
2018-08-04T22:30:38.108Z,79.30
2018-08-04T22:33:18.953Z,79.20
2018-08-04T22:35:59.924Z,78.50
2018-08-04T22:38:41.396Z,78.00
2018-08-04T22:41:22.401Z,77.20
2018-08-04T22:44:03.238Z,76.50
2018-08-04T22:46:44.220Z,75.20
2018-08-04T22:49:25.056Z,64.70
2018-08-04T22:52:06.053Z,69.60
2018-08-04T22:54:46.622Z,74.60
2018-08-04T22:57:27.386Z,76.70
2018-08-04T23:00:08.062Z,78.00
2018-08-04T23:02:48.922Z,77.90
2018-08-04T23:05:29.849Z,77.90
2018-08-04T23:08:11.341Z,77.00
2018-08-04T23:10:52.605Z,77.30
2018-08-04T23:13:33.236Z,76.70
2018-08-04T23:16:13.921Z,77.10
2018-08-04T23:18:54.722Z,76.20
2018-08-04T23:21:35.388Z,75.50
2018-08-04T23:24:15.985Z,74.10
2018-08-04T23:26:56.785Z,74.20
2018-08-04T23:29:37.514Z,73.90
2018-08-04T23:32:18.453Z,73.90
2018-08-04T23:34:58.998Z,72.50
2018-08-04T23:37:39.693Z,69.70
2018-08-04T23:40:20.680Z,69.50
2018-08-04T23:43:01.837Z,70.00
2018-08-04T23:45:42.461Z,69.20
2018-08-04T23:48:23.169Z,70.80
2018-08-04T23:51:03.744Z,73.50
2018-08-04T23:53:44.455Z,74.20
2018-08-04T23:59:06.917Z,63.60
